createdAt,value
2023-04-26T00:08:27.095Z,101794.00
2023-04-26T00:18:49.316Z,101786.00
2023-04-26T00:29:12.614Z,101783.00
2023-04-26T00:39:38.587Z,101799.00
2023-04-26T00:50:08.350Z,101800.00
2023-04-26T01:00:31.292Z,101795.00
2023-04-26T01:10:56.567Z,101806.00
2023-04-26T01:21:22.082Z,101803.00
2023-04-26T01:32:02.466Z,101820.00
2023-04-26T01:42:24.278Z,101828.00
2023-04-26T01:52:47.024Z,101837.00
2023-04-26T02:03:09.027Z,101843.00
2023-04-26T02:13:34.403Z,101825.00
2023-04-26T02:23:56.293Z,101827.00
2023-04-26T02:34:20.596Z,101839.00
2023-04-26T02:44:42.910Z,101835.00
2023-04-26T02:55:08.458Z,101839.00
2023-04-26T03:05:30.570Z,101845.00
2023-04-26T03:15:53.958Z,101850.00
2023-04-26T03:26:20.068Z,101845.00
2023-04-26T03:36:43.901Z,101861.00
2023-04-26T03:47:08.009Z,101857.00
2023-04-26T03:57:30.943Z,101871.00
2023-04-26T04:07:58.900Z,101870.00
2023-04-26T04:18:22.464Z,101876.00
2023-04-26T04:28:45.529Z,101874.00
2023-04-26T04:39:13.643Z,101877.00
2023-04-26T04:49:37.333Z,101873.00
2023-04-26T05:00:07.955Z,101885.00
2023-04-26T05:10:31.384Z,101873.00
2023-04-26T05:20:54.746Z,101878.00
2023-04-26T05:31:16.342Z,101872.00
2023-04-26T05:41:51.358Z,101893.00
2023-04-26T05:52:13.762Z,101891.00
2023-04-26T06:02:37.824Z,101884.00
2023-04-26T06:13:00.348Z,101887.00
2023-04-26T06:23:25.840Z,101888.00
2023-04-26T06:33:47.574Z,101879.00
2023-04-26T06:44:10.779Z,101897.00
2023-04-26T06:54:45.941Z,101881.00
2023-04-26T07:05:16.860Z,101863.00
2023-04-26T07:15:39.064Z,101910.00
2023-04-26T07:26:04.293Z,101891.00
2023-04-26T07:36:27.807Z,101888.00
2023-04-26T07:46:51.075Z,101889.00
2023-04-26T07:57:12.569Z,101889.00
2023-04-26T08:07:35.430Z,101892.00
2023-04-26T08:17:57.463Z,101914.00
2023-04-26T08:28:21.307Z,101898.00
2023-04-26T08:38:43.455Z,101930.00
2023-04-26T08:49:14.710Z,101950.00
2023-04-26T08:59:37.729Z,101912.00
2023-04-26T09:10:01.185Z,101937.00
2023-04-26T09:20:25.725Z,101906.00
2023-04-26T09:30:49.706Z,101887.00
2023-04-26T09:41:11.658Z,101899.00
2023-04-26T09:51:34.939Z,101912.00
2023-04-26T10:01:56.500Z,101922.00
2023-04-26T10:12:22.524Z,101913.00
2023-04-26T10:22:47.222Z,101915.00
2023-04-26T10:33:19.199Z,101909.00
2023-04-26T10:43:43.885Z,101880.00
2023-04-26T10:54:07.447Z,101921.00
2023-04-26T11:04:52.269Z,101915.00
2023-04-26T11:15:18.114Z,101919.00
2023-04-26T11:25:41.393Z,101918.00
2023-04-26T11:36:05.398Z,101913.00
2023-04-26T11:46:29.499Z,101907.00
2023-04-26T11:56:52.973Z,101920.00
2023-04-26T12:07:19.839Z,101929.00
2023-04-26T12:17:53.052Z,101942.00
2023-04-26T12:28:17.045Z,101936.00
2023-04-26T12:38:41.395Z,101921.00
2023-04-26T12:49:03.620Z,101940.00
2023-04-26T12:59:26.743Z,101932.00
2023-04-26T13:09:48.513Z,101898.00
2023-04-26T13:20:14.754Z,101900.00
2023-04-26T13:30:36.873Z,101885.00
2023-04-26T13:41:00.140Z,101877.00
2023-04-26T13:51:22.210Z,101918.00
2023-04-26T14:01:49.978Z,101926.00
2023-04-26T14:12:14.667Z,101961.00
2023-04-26T14:22:41.115Z,101934.00
2023-04-26T14:33:02.965Z,101955.00
2023-04-26T14:43:26.170Z,101933.00
2023-04-26T14:53:47.878Z,101921.00
2023-04-26T15:04:11.345Z,101943.00
2023-04-26T15:14:33.316Z,101964.00
2023-04-26T15:24:56.688Z,101936.00
2023-04-26T15:35:18.481Z,101932.00
2023-04-26T15:45:42.476Z,101920.00
2023-04-26T15:56:04.988Z,101923.00
2023-04-26T16:06:28.538Z,101943.00
2023-04-26T16:16:50.499Z,101958.00
2023-04-26T16:27:13.534Z,101953.00
2023-04-26T16:37:35.639Z,101957.00
2023-04-26T16:47:59.006Z,101969.00
2023-04-26T16:58:21.273Z,101961.00
2023-04-26T17:08:45.017Z,101976.00
2023-04-26T17:19:07.137Z,101965.00
2023-04-26T17:29:31.588Z,101982.00
2023-04-26T17:39:53.090Z,101993.00
2023-04-26T17:50:17.735Z,102005.00
2023-04-26T18:00:39.473Z,102016.00
2023-04-26T18:11:02.505Z,102033.00
2023-04-26T18:21:24.705Z,102053.00
2023-04-26T18:31:49.554Z,102060.00
2023-04-26T18:42:11.967Z,102076.00
2023-04-26T18:52:35.491Z,102093.00
2023-04-26T19:02:57.433Z,102104.00
2023-04-26T19:13:21.410Z,102114.00
2023-04-26T19:23:45.425Z,102104.00
2023-04-26T19:34:12.088Z,102112.00
2023-04-26T19:44:34.500Z,102130.00
2023-04-26T19:54:57.441Z,102138.00
2023-04-26T20:05:19.006Z,102140.00
2023-04-26T20:15:41.915Z,102156.00
2023-04-26T20:26:03.900Z,102154.00
2023-04-26T20:36:27.232Z,102154.00
2023-04-26T20:46:48.776Z,102156.00
2023-04-26T20:57:11.866Z,102157.00
2023-04-26T21:07:33.814Z,102163.00
2023-04-26T21:17:57.027Z,102159.00
2023-04-26T21:28:18.957Z,102162.00
2023-04-26T21:38:42.121Z,102164.00
2023-04-26T21:49:03.486Z,102172.00
2023-04-26T21:59:26.288Z,102171.00
2023-04-26T22:09:48.317Z,102184.00
2023-04-26T22:20:13.259Z,102183.00
2023-04-26T22:30:34.789Z,102198.00
2023-04-26T22:40:58.097Z,102205.00
2023-04-26T22:51:19.922Z,102205.00
2023-04-26T23:01:43.586Z,102216.00
2023-04-26T23:12:05.848Z,102204.00
2023-04-26T23:22:28.946Z,102219.00
2023-04-26T23:32:51.222Z,102212.00
2023-04-26T23:43:14.528Z,102221.00
2023-04-26T23:53:36.503Z,102211.00
